• Join FlightAware (Why Join?)
  • Login
  • US Flag 
04:25AM EST


 

Airport Tracker/Info


-or-


 

Live Flight TrackerFlight Track Log ✈ N508QS ✈ 25-Jun-2013 ✈ KBWI - KTEB

Flight Track Log - Related Links

Times and Time Zones

All times are in EDT time to prevent confusion due to time zone crossing. See the N508QS flight status page for this flight to view local times or setup timezone preferences in your user account.

Time Position Orientation Groundspeed Altitude Reporting Facility
EDT Latitude Longitude Course Direction KTS MPH feet Rate Location/Type
01:40PM 39.1833 -76.7333 151° Southeast 205 236 2,500  Level Potomac TRACON
01:42PM 39.1064 -76.6775 151° Southeast 147 169 6,400 2,100 Climbing Washington Center
01:43PM 39.1178 -76.5708 82° East 222 255 9,400 2,460 Climbing Washington Center
01:44PM 39.1289 -76.4772 81° East 282 325 11,300 2,940 Climbing Washington Center
01:45PM 39.1425 -76.3036 84° East 345 397 15,200 2,280 Climbing Washington Center
01:46PM 39.1911 -76.1728 64° Northeast 390 449 16,000 540 Climbing Washington Center
01:47PM 39.2814 -76.0769 39° Northeast 391 450 16,300 480 Climbing Washington Center
01:48PM 39.3753 -75.9861 37° Northeast 391 450 17,000 300 Climbing Washington Center
01:49PM 39.4839 -75.8900 34° Northeast 420 483 17,000 -600 Level Washington Center
01:51PM 39.6667 -75.7167 36° Northeast 418 481 15,300 -780 Descending Philadelphia TRACON
01:52PM 39.7500 -75.6333 38° Northeast 408 470 15,000 -240 Descending Philadelphia TRACON
01:53PM 39.8500 -75.5500 33° Northeast 399 459 14,800 -840 Descending Philadelphia TRACON
01:54PM 39.9500 -75.4667 33° Northeast 399 459 13,300 -900 Descending Philadelphia TRACON
01:55PM 40.0333 -75.3833 37° Northeast 389 448 13,000 -180 Descending Philadelphia TRACON
01:56PM 40.1167 -75.3000 37° Northeast 345 397 13,000 -180 Level Philadelphia TRACON
01:57PM 40.1667 -75.2500 37° Northeast 300 345 12,700 -1,200 Descending Philadelphia TRACON
01:58PM 40.3000 -75.1333 34° Northeast 306 352 10,000 -1,680 Descending New York TRACON
01:59PM 40.3500 -75.0667 45° Northeast 300 345 8,200 -1,500 Descending New York TRACON
02:00PM 40.4167 -74.9833 44° Northeast 297 342 7,000 -1,080 Descending New York TRACON
02:01PM 40.4667 -74.9167 45° Northeast 296 341 6,100 -1,260 Descending New York TRACON
02:03PM 40.5167 -74.8333 52° Northeast 286 329 4,400 -1,020 Descending New York TRACON
02:03PM 40.5667 -74.7667 45° Northeast 268 308 4,100 -180 Descending New York TRACON
02:05PM 40.6333 -74.7000 37° Northeast 264 304 4,100  Level New York TRACON
02:05PM 40.7000 -74.6500 30° Northeast 277 319 4,100  Level New York TRACON
02:06PM 40.7500 -74.5833 45° Northeast 287 330 4,100  Level New York TRACON
02:08PM 40.8167 -74.5000 43° Northeast 284 327 4,100 -240 Level New York TRACON
02:09PM 40.8667 -74.4167 52° Northeast 283 326 3,600 -540 Descending New York TRACON
02:09PM 40.9167 -74.3500 45° Northeast 285 328 3,100 -300 Descending New York TRACON
02:11PM 40.9333 -74.2500 78° East 277 319 3,100 -420 Level New York TRACON
02:12PM 40.9500 -74.1667 75° East 230 265 2,300 -540 Descending New York TRACON
02:13PM 40.9833 -74.1000 56° Northeast 209 241 2,100 -120 Descending New York TRACON
02:14PM 40.9667 -74.0500 114° Southeast 182 209 2,100 -420 Level New York TRACON
02:15PM 40.9167 -74.0500 180° South 146 168 1,300 -840 Descending New York TRACON